Time;durP1;ratioP1;P1;durP2;ratioP2;P2;SDS_P1;SDS_P2;PMS_P1;PMS_P2;Temp;Humidity;BMP_temperature;BMP_pressure;BME280_temperature;BME280_humidity;BME280_pressure;Samples;Min_cycle;Max_cycle;Signal;HPM_P1;HPM_P2
2022/07/25 00:00:47;;;;;;;8.95;5.32;;;19.80;73.80;;;;;;5031661;28;20060;-70
2022/07/25 00:03:12;;;;;;;8.02;5.28;;;20.00;73.40;;;;;;5024032;28;20079;-70
2022/07/25 00:05:38;;;;;;;9.05;5.85;;;20.00;72.60;;;;;;5025592;28;20108;-70
2022/07/25 00:08:04;;;;;;;6.15;5.28;;;20.10;72.60;;;;;;5026196;28;20018;-70
2022/07/25 00:10:29;;;;;;;7.82;5.72;;;20.30;71.80;;;;;;5027274;28;20551;-70
2022/07/25 00:12:55;;;;;;;7.53;5.60;;;20.40;71.50;;;;;;5025094;28;20484;-70
2022/07/25 00:15:20;;;;;;;7.00;5.28;;;20.30;71.80;;;;;;5023261;28;20025;-70
2022/07/25 00:17:46;;;;;;;7.72;5.07;;;20.20;72.10;;;;;;5021225;28;20033;-70
2022/07/25 00:20:11;;;;;;;7.78;5.32;;;20.30;71.40;;;;;;5030814;28;20038;-70
2022/07/25 00:22:37;;;;;;;11.10;5.18;;;20.50;70.60;;;;;;5022771;28;20346;-70
2022/07/25 00:25:03;;;;;;;10.65;4.90;;;20.30;71.30;;;;;;5030102;28;20079;-70
2022/07/25 00:27:28;;;;;;;6.57;4.93;;;20.60;69.80;;;;;;5029044;28;20030;-70
2022/07/25 00:29:54;;;;;;;7.05;4.95;;;20.60;69.00;;;;;;5023965;28;20041;-70
2022/07/25 00:32:19;;;;;;;5.90;4.50;;;20.60;68.70;;;;;;5023462;28;20064;-70
2022/07/25 00:34:45;;;;;;;8.57;5.30;;;20.50;69.30;;;;;;5024610;28;20037;-70
2022/07/25 00:37:10;;;;;;;7.35;5.35;;;20.50;68.70;;;;;;5028643;28;20151;-70
2022/07/25 00:39:36;;;;;;;7.80;4.47;;;20.50;68.50;;;;;;5030850;28;20053;-70
2022/07/25 00:42:02;;;;;;;7.63;5.25;;;20.50;68.90;;;;;;5029616;28;20496;-70
2022/07/25 00:44:30;;;;;;;6.63;4.90;;;20.50;69.10;;;;;;5028212;28;20136;-70
2022/07/25 00:46:56;;;;;;;7.60;4.85;;;20.40;69.60;;;;;;5025786;28;20128;-70
2022/07/25 00:49:23;;;;;;;5.97;4.28;;;20.50;68.90;;;;;;5028528;28;20091;-70
2022/07/25 00:51:50;;;;;;;6.82;4.43;;;20.50;68.80;;;;;;5025591;28;20518;-70
2022/07/25 00:54:17;;;;;;;9.32;4.15;;;20.30;69.30;;;;;;5024015;28;20087;-70
2022/07/25 00:56:43;;;;;;;7.88;4.53;;;20.30;68.60;;;;;;5025557;28;20392;-70
2022/07/25 00:59:09;;;;;;;6.70;4.38;;;20.20;69.00;;;;;;5027935;28;20470;-70
2022/07/25 01:01:37;;;;;;;6.45;4.40;;;20.30;68.30;;;;;;5028159;28;20120;-70
2022/07/25 01:04:03;;;;;;;8.38;4.28;;;20.30;68.90;;;;;;5028442;28;20039;-70
2022/07/25 01:06:29;;;;;;;5.93;3.97;;;20.30;68.20;;;;;;5029131;28;20037;-70
2022/07/25 01:08:55;;;;;;;7.13;4.43;;;20.30;68.00;;;;;;5023362;28;20025;-70
2022/07/25 01:11:21;;;;;;;7.60;4.78;;;20.30;68.00;;;;;;5028503;28;20457;-70
2022/07/25 01:13:46;;;;;;;6.50;3.95;;;20.30;67.90;;;;;;5018171;28;21430;-70
2022/07/25 01:16:12;;;;;;;7.30;4.22;;;20.20;68.00;;;;;;5028119;28;20056;-70
2022/07/25 01:18:38;;;;;;;6.18;4.20;;;20.30;66.60;;;;;;5027952;28;20741;-70
2022/07/25 01:21:04;;;;;;;5.65;3.72;;;20.40;66.60;;;;;;5027951;28;20060;-70
2022/07/25 01:23:29;;;;;;;5.47;3.53;;;20.40;66.20;;;;;;5027359;28;20470;-70
2022/07/25 01:25:55;;;;;;;6.88;4.30;;;20.30;66.10;;;;;;5028419;28;20049;-70
2022/07/25 01:28:20;;;;;;;5.10;3.72;;;20.20;66.60;;;;;;5018281;28;20036;-70
2022/07/25 01:30:46;;;;;;;5.82;4.03;;;20.30;65.90;;;;;;5028963;28;20029;-70
2022/07/25 01:33:20;;;;;;;8.77;4.22;;;20.30;65.70;;;;;;5026137;28;20030;-70
2022/07/25 01:35:46;;;;;;;9.00;3.75;;;20.20;65.90;;;;;;5029730;28;20025;-70
2022/07/25 01:38:12;;;;;;;5.15;3.40;;;20.20;66.20;;;;;;5027781;28;20041;-70
2022/07/25 01:40:38;;;;;;;9.00;3.28;;;20.10;65.80;;;;;;5023137;28;20029;-70
2022/07/25 01:43:04;;;;;;;6.32;3.70;;;20.10;65.90;;;;;;5026371;28;20034;-70
2022/07/25 01:45:30;;;;;;;5.80;3.50;;;20.00;65.90;;;;;;5028860;28;20127;-70
2022/07/25 01:47:55;;;;;;;8.13;4.28;;;20.00;66.00;;;;;;5027067;28;20564;-70
2022/07/25 01:50:21;;;;;;;7.50;3.35;;;20.00;65.60;;;;;;5025908;28;20558;-69
2022/07/25 01:52:46;;;;;;;9.45;3.70;;;20.00;66.00;;;;;;5023018;28;20539;-70
2022/07/25 01:55:12;;;;;;;6.70;3.67;;;20.00;66.20;;;;;;5020284;28;20045;-70
2022/07/25 01:57:39;;;;;;;4.80;3.30;;;20.00;66.30;;;;;;5026940;28;20469;-70
2022/07/25 02:00:07;;;;;;;4.82;3.70;;;20.00;66.00;;;;;;5028522;28;20037;-70
2022/07/25 02:02:32;;;;;;;6.20;3.58;;;19.90;66.00;;;;;;5025266;28;20049;-70
2022/07/25 02:04:58;;;;;;;6.53;3.90;;;19.80;66.10;;;;;;5028818;28;20037;-70
2022/07/25 02:07:23;;;;;;;6.50;3.60;;;19.80;66.90;;;;;;5021075;28;20044;-70
2022/07/25 02:09:49;;;;;;;5.43;3.13;;;19.70;66.30;;;;;;5022262;28;20037;-70
2022/07/25 02:12:14;;;;;;;6.20;3.33;;;19.70;66.30;;;;;;5022997;28;20123;-70
2022/07/25 02:14:40;;;;;;;5.47;3.70;;;19.60;66.80;;;;;;5028514;28;20108;-70
2022/07/25 02:17:05;;;;;;;5.53;3.58;;;19.60;66.40;;;;;;5024021;28;20049;-70
2022/07/25 02:19:31;;;;;;;5.47;3.50;;;19.70;66.40;;;;;;5028458;28;20087;-70
2022/07/25 02:21:56;;;;;;;8.63;3.55;;;19.60;66.50;;;;;;5026122;28;20037;-70
2022/07/25 02:24:22;;;;;;;7.07;3.53;;;19.70;65.90;;;;;;5029945;28;20120;-70
2022/07/25 02:26:48;;;;;;;6.28;3.55;;;19.70;66.40;;;;;;5027078;28;20025;-70
2022/07/25 02:29:13;;;;;;;5.93;3.30;;;19.60;66.00;;;;;;5022869;28;20037;-70
2022/07/25 02:31:38;;;;;;;6.90;3.10;;;19.60;66.10;;;;;;5026875;28;20030;-70
2022/07/25 02:34:04;;;;;;;8.52;3.15;;;19.50;66.60;;;;;;5020060;28;20028;-70
2022/07/25 02:36:29;;;;;;;6.05;3.17;;;19.50;66.90;;;;;;5026183;28;20033;-70
2022/07/25 02:38:55;;;;;;;5.03;3.25;;;19.50;66.60;;;;;;5024852;28;20116;-70
2022/07/25 02:41:21;;;;;;;4.53;3.25;;;19.50;66.50;;;;;;5025877;28;20422;-69
2022/07/25 02:43:46;;;;;;;7.20;3.60;;;19.50;66.80;;;;;;5022359;28;20444;-69
2022/07/25 02:46:12;;;;;;;7.15;3.13;;;19.40;66.50;;;;;;5027076;28;20052;-70
2022/07/25 02:48:37;;;;;;;6.43;3.17;;;19.40;66.50;;;;;;5027087;28;20031;-70
2022/07/25 02:51:03;;;;;;;6.97;3.65;;;19.40;66.80;;;;;;5020767;28;20045;-70
2022/07/25 02:53:28;;;;;;;5.68;3.10;;;19.40;66.90;;;;;;5017196;28;20032;-70
2022/07/25 02:55:54;;;;;;;4.30;3.10;;;19.40;66.70;;;;;;5024186;28;20021;-70
2022/07/25 02:58:19;;;;;;;6.05;3.40;;;19.40;66.30;;;;;;5025476;28;20041;-69
2022/07/25 03:00:45;;;;;;;5.25;3.10;;;19.30;66.40;;;;;;5025858;28;20408;-70
2022/07/25 03:03:11;;;;;;;5.38;3.20;;;19.30;66.40;;;;;;5024633;28;20166;-70
2022/07/25 03:05:36;;;;;;;9.10;3.17;;;19.30;66.60;;;;;;5025363;28;20036;-70
2022/07/25 03:08:02;;;;;;;6.35;3.50;;;19.30;66.90;;;;;;5021249;28;20022;-70
2022/07/25 03:10:27;;;;;;;5.75;2.97;;;19.30;67.00;;;;;;5011439;28;20061;-70
2022/07/25 03:12:53;;;;;;;6.82;3.35;;;19.30;66.70;;;;;;5026406;28;20033;-70
2022/07/25 03:15:18;;;;;;;5.35;3.25;;;19.40;66.50;;;;;;5026130;28;20060;-70
2022/07/25 03:17:44;;;;;;;6.82;3.25;;;19.30;66.90;;;;;;5025678;28;20028;-70
2022/07/25 03:20:10;;;;;;;4.45;3.13;;;19.30;66.70;;;;;;5024539;28;20423;-70
2022/07/25 03:22:35;;;;;;;7.30;3.05;;;19.20;66.90;;;;;;5025386;28;20079;-70
2022/07/25 03:25:01;;;;;;;7.30;3.28;;;19.20;66.80;;;;;;5031850;28;20560;-69
2022/07/25 03:27:27;;;;;;;4.68;2.72;;;19.20;66.70;;;;;;5027499;28;20493;-70
2022/07/25 03:29:53;;;;;;;5.70;3.28;;;19.10;66.80;;;;;;5028066;28;20116;-70
2022/07/25 03:32:19;;;;;;;5.45;3.00;;;19.10;67.00;;;;;;5018115;28;20465;-70
2022/07/25 03:34:44;;;;;;;6.65;3.45;;;19.20;66.60;;;;;;5029145;28;20053;-69
2022/07/25 03:37:10;;;;;;;5.72;3.15;;;19.20;66.60;;;;;;5028098;28;20324;-70
2022/07/25 03:39:35;;;;;;;5.95;3.28;;;19.10;66.80;;;;;;5026867;28;20033;-70
2022/07/25 03:42:01;;;;;;;4.10;2.72;;;19.10;66.90;;;;;;5032432;28;20029;-70
2022/07/25 03:44:26;;;;;;;7.78;3.38;;;19.10;67.40;;;;;;5023274;28;20056;-70
2022/07/25 03:46:52;;;;;;;6.10;3.50;;;19.20;66.50;;;;;;5022958;28;20037;-70
2022/07/25 03:49:18;;;;;;;8.10;2.88;;;19.20;66.30;;;;;;5025403;28;20112;-70
2022/07/25 03:51:44;;;;;;;8.43;3.22;;;19.20;66.50;;;;;;5028662;28;20037;-70
2022/07/25 03:54:12;;;;;;;5.57;3.13;;;19.20;66.30;;;;;;5026817;28;20022;-70
2022/07/25 03:56:41;;;;;;;5.43;2.80;;;19.30;66.00;;;;;;5023376;28;20246;-70
2022/07/25 03:59:08;;;;;;;4.45;2.90;;;19.30;66.40;;;;;;5029680;28;20376;-70
2022/07/25 04:01:33;;;;;;;4.13;3.00;;;19.20;67.10;;;;;;5027598;28;20045;-70
2022/07/25 04:03:59;;;;;;;6.72;3.30;;;19.20;66.50;;;;;;5028834;28;20029;-70
2022/07/25 04:06:25;;;;;;;4.00;2.88;;;19.30;65.90;;;;;;5027145;28;20068;-70
2022/07/25 04:08:51;;;;;;;5.45;3.28;;;19.30;66.00;;;;;;5026282;28;20186;-70
2022/07/25 04:11:17;;;;;;;5.90;3.10;;;19.40;65.90;;;;;;5026311;28;20515;-70
2022/07/25 04:13:42;;;;;;;5.20;3.20;;;19.30;66.10;;;;;;5028703;28;20018;-69
2022/07/25 04:16:08;;;;;;;4.93;3.20;;;19.30;66.80;;;;;;5030792;28;20128;-69
2022/07/25 04:18:34;;;;;;;5.93;3.08;;;19.30;66.40;;;;;;5026781;28;20068;-71
2022/07/25 04:20:59;;;;;;;5.28;3.47;;;19.40;66.00;;;;;;5027416;28;20037;-71
2022/07/25 04:23:27;;;;;;;4.75;3.00;;;19.40;66.50;;;;;;5027569;28;20112;-71
2022/07/25 04:25:53;;;;;;;4.43;2.50;;;19.40;66.70;;;;;;5030020;28;20373;-71
2022/07/25 04:28:18;;;;;;;3.75;2.83;;;19.40;66.40;;;;;;5026313;28;20104;-69
2022/07/25 04:30:44;;;;;;;5.88;3.15;;;19.50;66.60;;;;;;5026839;28;20025;-69
2022/07/25 04:33:10;;;;;;;6.85;3.00;;;19.50;66.00;;;;;;5025140;28;20029;-69
2022/07/25 04:35:36;;;;;;;4.18;2.70;;;19.50;66.50;;;;;;5025908;28;20416;-68
2022/07/25 04:38:01;;;;;;;5.75;2.95;;;19.60;66.40;;;;;;5027168;28;20068;-69
2022/07/25 04:40:27;;;;;;;4.88;2.88;;;19.80;65.70;;;;;;5029862;28;20191;-69
2022/07/25 04:42:52;;;;;;;5.05;2.67;;;19.80;65.30;;;;;;5028700;28;20354;-69
2022/07/25 04:45:18;;;;;;;4.82;2.75;;;19.90;65.60;;;;;;5029367;28;20045;-69
2022/07/25 04:47:43;;;;;;;4.20;2.80;;;20.00;65.40;;;;;;5027990;28;20692;-69
2022/07/25 04:50:09;;;;;;;5.97;2.72;;;20.00;64.90;;;;;;5028633;28;20416;-69
2022/07/25 04:52:34;;;;;;;5.10;3.17;;;20.00;65.30;;;;;;5024781;28;20400;-69
2022/07/25 04:55:00;;;;;;;4.88;2.92;;;20.20;63.80;;;;;;5027312;28;20013;-69
2022/07/25 04:57:25;;;;;;;5.03;2.65;;;20.30;65.20;;;;;;5023065;28;20381;-69
2022/07/25 04:59:51;;;;;;;7.13;2.97;;;20.40;64.00;;;;;;5025990;28;20039;-69
2022/07/25 05:02:16;;;;;;;5.93;2.72;;;20.50;63.40;;;;;;5026936;28;20041;-69
2022/07/25 05:04:42;;;;;;;5.32;2.97;;;20.50;63.70;;;;;;5024969;28;20433;-68
2022/07/25 05:07:07;;;;;;;6.45;2.67;;;20.60;63.40;;;;;;5029140;28;20112;-69
2022/07/25 05:09:33;;;;;;;6.30;2.85;;;20.70;63.10;;;;;;5026109;28;20041;-69
2022/07/25 05:11:59;;;;;;;5.80;3.10;;;20.80;62.50;;;;;;5028301;28;20481;-68
2022/07/25 05:14:24;;;;;;;7.18;2.72;;;20.80;62.80;;;;;;5027681;28;20080;-69
2022/07/25 05:16:49;;;;;;;6.78;2.80;;;20.90;62.80;;;;;;5027147;28;20035;-68
2022/07/25 05:19:15;;;;;;;5.55;2.85;;;20.90;62.40;;;;;;5025861;28;20060;-68
2022/07/25 05:21:41;;;;;;;7.18;2.83;;;20.90;63.20;;;;;;5024890;28;20040;-69
2022/07/25 05:24:06;;;;;;;4.30;2.63;;;20.90;63.40;;;;;;5019835;28;20044;-68
2022/07/25 05:26:32;;;;;;;4.25;3.05;;;20.90;63.10;;;;;;5024597;28;20473;-69
2022/07/25 05:28:57;;;;;;;3.75;2.60;;;20.90;63.20;;;;;;5023641;28;20036;-69
2022/07/25 05:31:23;;;;;;;5.63;2.97;;;21.00;62.60;;;;;;5023606;28;20037;-69
2022/07/25 05:33:48;;;;;;;4.25;2.70;;;21.20;61.70;;;;;;5025483;28;20029;-69
2022/07/25 05:36:14;;;;;;;4.28;2.55;;;21.20;61.50;;;;;;5024139;28;20124;-69
2022/07/25 05:38:39;;;;;;;5.45;2.60;;;21.30;62.60;;;;;;5020885;28;20046;-69
2022/07/25 05:41:05;;;;;;;5.78;2.75;;;21.40;62.20;;;;;;5024125;28;20073;-69
2022/07/25 05:43:30;;;;;;;4.88;2.58;;;21.50;61.10;;;;;;5022636;28;20447;-69
2022/07/25 05:46:01;;;;;;;4.50;2.50;;;21.50;61.50;;;;;;5023716;28;20025;-69
2022/07/25 05:48:26;;;;;;;5.35;2.55;;;21.60;61.70;;;;;;5027260;28;20115;-68
2022/07/25 05:50:52;;;;;;;4.20;2.63;;;21.70;61.70;;;;;;5026461;28;20125;-68
2022/07/25 05:53:17;;;;;;;4.82;2.80;;;21.90;62.00;;;;;;5021769;28;20436;-69
2022/07/25 05:55:43;;;;;;;5.18;3.13;;;22.10;60.10;;;;;;5017601;28;20059;-69
2022/07/25 05:58:08;;;;;;;5.38;2.70;;;22.30;60.30;;;;;;5026533;28;20079;-69
2022/07/25 06:00:34;;;;;;;5.63;2.47;;;22.60;60.10;;;;;;5027406;28;20429;-69
2022/07/25 06:03:00;;;;;;;4.95;2.35;;;22.60;58.90;;;;;;5026503;28;20512;-69
2022/07/25 06:05:26;;;;;;;6.35;2.85;;;22.60;58.50;;;;;;5026783;28;20056;-69
2022/07/25 06:07:51;;;;;;;5.03;2.83;;;22.70;58.60;;;;;;5021464;28;20055;-68
2022/07/25 06:10:17;;;;;;;5.80;2.70;;;22.80;59.00;;;;;;5027206;28;20045;-69
2022/07/25 06:12:42;;;;;;;5.38;3.00;;;22.80;58.00;;;;;;5027615;28;20357;-69
2022/07/25 06:15:08;;;;;;;7.50;2.80;;;22.90;57.70;;;;;;5029448;28;20555;-69
2022/07/25 06:17:34;;;;;;;6.45;2.83;;;22.90;57.40;;;;;;5018151;28;20095;-68
2022/07/25 06:19:59;;;;;;;3.90;2.50;;;23.00;56.80;;;;;;5023371;28;20025;-69
2022/07/25 06:22:25;;;;;;;4.75;2.92;;;23.00;56.30;;;;;;5018337;28;20033;-69
2022/07/25 06:24:50;;;;;;;3.63;2.47;;;23.10;57.30;;;;;;5026178;28;20030;-69
2022/07/25 06:27:16;;;;;;;5.80;2.70;;;23.20;56.10;;;;;;5021559;28;20112;-69
2022/07/25 06:29:42;;;;;;;4.93;2.83;;;23.30;57.40;;;;;;5028408;28;20040;-69
2022/07/25 06:32:07;;;;;;;3.95;2.50;;;23.30;56.50;;;;;;5021574;28;20025;-69
2022/07/25 06:34:33;;;;;;;4.40;2.80;;;23.40;56.90;;;;;;5028192;28;20048;-69
2022/07/25 06:36:58;;;;;;;5.32;2.70;;;23.40;57.20;;;;;;5022460;28;20060;-73
2022/07/25 06:39:25;;;;;;;7.30;2.60;;;23.40;57.40;;;;;;5023794;28;20088;-72
2022/07/25 06:41:50;;;;;;;5.13;2.88;;;23.60;56.40;;;;;;5026939;28;20037;-72
2022/07/25 06:44:16;;;;;;;4.35;2.45;;;23.90;56.90;;;;;;5015227;28;20103;-73
2022/07/25 06:46:41;;;;;;;4.75;2.90;;;24.00;56.20;;;;;;5014810;28;20026;-73
2022/07/25 06:49:07;;;;;;;6.28;2.60;;;24.20;57.20;;;;;;5023279;28;20485;-73
2022/07/25 06:51:32;;;;;;;5.32;2.92;;;24.30;55.80;;;;;;5027183;28;20030;-73
2022/07/25 06:53:59;;;;;;;6.72;2.88;;;24.20;55.40;;;;;;5028240;28;20109;-73
2022/07/25 06:56:24;;;;;;;6.85;2.80;;;24.20;56.10;;;;;;5027538;28;20394;-73
2022/07/25 06:58:52;;;;;;;5.32;2.80;;;24.10;56.80;;;;;;5025152;28;20028;-73
2022/07/25 07:01:17;;;;;;;6.65;2.65;;;24.00;57.80;;;;;;5020269;28;20025;-72
2022/07/25 07:03:43;;;;;;;5.30;2.83;;;24.10;56.20;;;;;;5027246;28;20370;-72
2022/07/25 07:06:08;;;;;;;6.50;3.03;;;24.40;54.80;;;;;;5022080;28;20034;-73
2022/07/25 07:08:34;;;;;;;5.68;3.28;;;24.60;55.50;;;;;;5024051;28;20026;-72
2022/07/25 07:11:00;;;;;;;3.97;2.55;;;24.90;55.00;;;;;;5026380;28;20507;-72
2022/07/25 07:13:25;;;;;;;4.75;2.80;;;25.00;54.90;;;;;;5026778;28;20401;-73
2022/07/25 07:15:51;;;;;;;4.78;2.90;;;25.30;55.60;;;;;;5032446;28;20029;-72
2022/07/25 07:18:18;;;;;;;5.68;2.92;;;25.30;54.30;;;;;;5019397;28;20064;-72
2022/07/25 07:20:44;;;;;;;11.07;3.38;;;25.50;54.00;;;;;;5029287;28;20096;-72
2022/07/25 07:23:10;;;;;;;6.60;3.35;;;25.50;55.40;;;;;;5032423;28;20108;-72
2022/07/25 07:25:36;;;;;;;5.88;3.10;;;25.60;53.20;;;;;;5033559;28;20120;-73
2022/07/25 07:28:02;;;;;;;4.20;3.00;;;25.80;53.30;;;;;;5030861;28;20052;-72
2022/07/25 07:30:28;;;;;;;5.03;2.97;;;26.00;53.70;;;;;;5031457;28;20117;-72
2022/07/25 07:32:53;;;;;;;4.72;2.72;;;26.00;51.90;;;;;;5019616;28;20059;-72
2022/07/25 07:35:19;;;;;;;5.60;3.00;;;26.30;52.00;;;;;;5029787;28;20092;-72
2022/07/25 07:37:45;;;;;;;6.82;3.10;;;26.60;52.90;;;;;;5025611;28;20053;-73
2022/07/25 07:40:12;;;;;;;4.68;3.08;;;26.70;52.00;;;;;;5025273;28;20079;-77
2022/07/25 07:42:44;;;;;;;6.07;3.17;;;26.70;51.30;;;;;;5026640;28;20116;-75
2022/07/25 07:45:13;;;;;;;7.00;3.53;;;26.70;50.70;;;;;;5028971;28;20384;-76
2022/07/25 07:47:39;;;;;;;6.73;3.53;;;26.60;49.70;;;;;;5028095;28;20037;-74
2022/07/25 07:50:05;;;;;;;6.15;3.65;;;26.60;51.00;;;;;;5027389;28;20033;-75
2022/07/25 07:52:31;;;;;;;7.25;3.90;;;26.70;51.20;;;;;;5028580;28;20025;-76
2022/07/25 07:57:41;;;;;;;5.53;3.25;;;27.20;50.30;;;;;;5026537;28;20084;-76
2022/07/25 08:00:07;;;;;;;5.22;3.33;;;27.40;50.40;;;;;;5023368;28;20436;-76
2022/07/25 08:02:44;;;;;;;4.10;2.95;;;27.40;51.00;;;;;;5024953;28;20045;-75
2022/07/25 08:05:10;;;;;;;5.03;3.30;;;27.40;49.40;;;;;;5026020;28;20064;-74
2022/07/25 08:07:36;;;;;;;6.88;3.40;;;27.50;50.60;;;;;;5025850;28;20453;-75
2022/07/25 08:10:01;;;;;;;6.07;3.13;;;27.90;51.60;;;;;;5028782;28;20047;-75
2022/07/25 08:12:27;;;;;;;4.93;3.40;;;28.00;50.10;;;;;;5023663;28;20398;-74
2022/07/25 08:14:52;;;;;;;5.90;3.20;;;28.00;47.80;;;;;;5026505;28;20029;-74
2022/07/25 08:17:18;;;;;;;5.28;3.13;;;28.20;48.90;;;;;;5027518;28;20063;-76
2022/07/25 08:19:43;;;;;;;7.18;3.45;;;28.00;48.30;;;;;;5027968;28;20115;-75
2022/07/25 08:22:09;;;;;;;8.02;3.35;;;28.20;48.80;;;;;;5024280;28;20104;-76
2022/07/25 08:24:34;;;;;;;6.00;3.20;;;28.50;49.30;;;;;;5033367;28;20390;-73
2022/07/25 08:27:00;;;;;;;6.88;3.58;;;28.50;46.70;;;;;;5028370;28;20029;-73
2022/07/25 08:29:26;;;;;;;5.57;3.63;;;28.40;48.90;;;;;;5027497;28;20469;-73
2022/07/25 08:31:51;;;;;;;4.85;3.30;;;28.30;48.20;;;;;;5021375;28;20205;-74
2022/07/25 08:34:18;;;;;;;6.05;3.95;;;28.40;49.10;;;;;;5023531;28;20112;-73
2022/07/25 08:36:43;;;;;;;5.35;3.65;;;28.50;49.30;;;;;;5024062;28;20333;-73
2022/07/25 08:39:09;;;;;;;5.93;3.72;;;28.80;49.10;;;;;;5024994;28;20025;-74
2022/07/25 08:41:38;;;;;;;4.32;3.30;;;28.70;47.80;;;;;;5017864;28;20489;-73
2022/07/25 08:44:05;;;;;;;6.25;3.55;;;29.10;47.80;;;;;;5019785;28;20029;-73
2022/07/25 08:46:30;;;;;;;10.00;4.25;;;29.10;46.10;;;;;;5014844;28;20048;-74
2022/07/25 08:48:56;;;;;;;6.85;3.92;;;29.40;46.30;;;;;;5027500;28;20108;-74
2022/07/25 08:51:22;;;;;;;4.93;3.30;;;29.50;47.70;;;;;;5021649;28;20029;-73
2022/07/25 08:53:49;;;;;;;4.82;3.38;;;30.00;45.60;;;;;;5024919;28;20044;-74
2022/07/25 08:56:14;;;;;;;5.10;3.55;;;30.00;47.20;;;;;;5024977;28;21230;-74
2022/07/25 08:58:40;;;;;;;7.60;3.30;;;29.90;45.20;;;;;;5016143;28;21048;-73
2022/07/25 09:01:06;;;;;;;7.18;4.10;;;29.40;47.40;;;;;;5023886;28;20014;-74
2022/07/25 09:03:32;;;;;;;5.25;3.25;;;29.00;47.40;;;;;;5024961;28;20029;-73
2022/07/25 09:05:57;;;;;;;5.05;3.65;;;29.00;46.60;;;;;;5022757;28;20030;-74
2022/07/25 09:08:23;;;;;;;4.57;3.38;;;29.20;47.90;;;;;;5025974;28;20064;-74
2022/07/25 09:10:50;;;;;;;5.75;3.10;;;29.60;46.50;;;;;;5022434;28;20053;-73
2022/07/25 09:13:17;;;;;;;5.18;3.80;;;30.00;46.10;;;;;;5019415;28;20033;-73
2022/07/25 09:15:52;;;;;;;6.82;3.72;;;30.30;45.20;;;;;;5023497;28;20033;-73
2022/07/25 09:18:22;;;;;;;7.90;4.18;;;30.50;48.10;;;;;;5019629;28;20033;-74
2022/07/25 09:20:49;;;;;;;8.63;4.00;;;30.50;45.50;;;;;;5025765;28;20080;-75
2022/07/25 09:23:37;;;;;;;8.10;3.40;;;30.50;43.50;;;;;;5023676;28;20033;-73
2022/07/25 09:26:13;;;;;;;5.85;3.65;;;30.70;45.70;;;;;;5024192;28;20061;-74
2022/07/25 09:28:51;;;;;;;10.10;3.55;;;30.80;45.80;;;;;;5028163;28;20389;-75
2022/07/25 09:31:17;;;;;;;6.10;3.50;;;30.80;44.60;;;;;;5024364;28;20064;-75
2022/07/25 09:33:46;;;;;;;6.22;3.90;;;30.90;44.00;;;;;;5027805;28;20025;-75
2022/07/25 09:36:12;;;;;;;7.07;3.95;;;31.00;44.00;;;;;;5022792;28;20017;-75
2022/07/25 09:38:37;;;;;;;4.97;3.38;;;31.20;43.40;;;;;;5026280;28;20115;-75
2022/07/25 09:41:03;;;;;;;8.15;3.30;;;31.20;43.60;;;;;;5027912;28;20036;-74
2022/07/25 09:43:39;;;;;;;4.75;3.33;;;31.70;45.90;;;;;;5025077;28;20052;-75
2022/07/25 09:46:06;;;;;;;5.85;3.58;;;31.90;43.10;;;;;;5026925;28;20092;-74
2022/07/25 09:48:32;;;;;;;6.65;3.83;;;31.90;44.20;;;;;;5024864;28;20554;-74
2022/07/25 09:50:58;;;;;;;6.72;3.03;;;31.70;41.10;;;;;;5023348;28;20029;-74
2022/07/25 09:53:24;;;;;;;8.25;3.97;;;31.40;43.60;;;;;;5023979;28;20092;-74
2022/07/25 09:55:52;;;;;;;5.22;3.30;;;31.50;43.30;;;;;;5022912;28;20480;-74
2022/07/25 09:58:18;;;;;;;5.22;3.42;;;31.50;44.10;;;;;;5026731;28;20071;-74
2022/07/25 10:00:44;;;;;;;4.25;3.08;;;31.40;43.60;;;;;;5022031;28;20025;-74
2022/07/25 10:03:37;;;;;;;6.88;4.03;;;31.30;43.00;;;;;;5024758;28;20029;-74
2022/07/25 10:06:33;;;;;;;5.13;3.25;;;31.50;44.10;;;;;;5022216;28;20492;-74
2022/07/25 10:08:58;;;;;;;5.75;3.58;;;31.30;42.30;;;;;;5015785;28;20068;-74
2022/07/25 10:11:25;;;;;;;5.43;3.42;;;31.20;43.30;;;;;;5023221;28;20456;-74
2022/07/25 10:13:53;;;;;;;7.43;3.67;;;31.20;42.90;;;;;;5021781;28;20135;-74
2022/07/25 10:16:21;;;;;;;5.47;3.15;;;31.10;42.70;;;;;;5024188;28;20502;-77
2022/07/25 10:18:57;;;;;;;5.75;3.67;;;31.30;43.90;;;;;;5025519;28;20033;-76
2022/07/25 10:21:24;;;;;;;6.35;3.35;;;31.70;41.80;;;;;;5023383;28;20037;-76
2022/07/25 10:24:05;;;;;;;9.75;3.30;;;32.00;44.30;;;;;;5027462;28;20032;-75
2022/07/25 10:26:31;;;;;;;;;;;32.20;41.10;;;;;;5029056;28;20037;-76
2022/07/25 10:28:57;;;;;;;7.53;3.30;;;32.00;41.40;;;;;;5023104;28;19909;-75
2022/07/25 10:31:34;;;;;;;7.25;3.33;;;31.90;44.10;;;;;;5021709;28;20049;-73
2022/07/25 10:34:06;;;;;;;5.13;3.30;;;31.80;41.90;;;;;;5034150;28;20030;-75
2022/07/25 10:36:47;;;;;;;6.72;3.55;;;31.60;40.40;;;;;;5024835;28;20029;-75
2022/07/25 10:39:18;;;;;;;5.15;3.67;;;31.70;41.60;;;;;;5033359;28;20052;-75
2022/07/25 10:41:51;;;;;;;4.45;3.58;;;31.40;41.50;;;;;;5030556;28;20057;-75
2022/07/25 10:44:17;;;;;;;4.50;3.38;;;31.50;43.10;;;;;;5029329;28;20060;-75
2022/07/25 10:46:43;;;;;;;8.23;3.22;;;31.40;43.90;;;;;;5032151;28;20072;-74
2022/07/25 10:49:17;;;;;;;4.63;3.38;;;31.30;41.40;;;;;;5026229;28;20033;-74
2022/07/25 10:51:56;;;;;;;5.13;3.55;;;31.20;41.80;;;;;;5021171;28;20282;-74
2022/07/25 10:54:22;;;;;;;5.72;3.35;;;31.00;41.80;;;;;;5014151;28;20022;-74
2022/07/25 10:56:56;;;;;;;7.05;3.65;;;31.10;43.00;;;;;;5020095;28;20420;-74
2022/07/25 10:59:27;;;;;;;6.63;3.83;;;31.00;41.00;;;;;;5025885;28;20068;-74
2022/07/25 11:01:54;;;;;;;5.22;3.55;;;31.00;43.20;;;;;;5030077;28;20033;-75
2022/07/25 11:04:19;;;;;;;4.57;3.20;;;30.90;40.20;;;;;;5030162;28;20025;-74
2022/07/25 11:06:45;;;;;;;5.85;3.50;;;31.00;42.40;;;;;;5023908;28;20387;-74
2022/07/25 11:09:19;;;;;;;5.28;3.55;;;31.10;41.30;;;;;;5028922;28;20041;-75
2022/07/25 11:11:49;;;;;;;5.20;3.22;;;31.40;40.60;;;;;;5031856;28;20041;-75
2022/07/25 11:14:16;;;;;;;6.10;3.28;;;31.50;41.30;;;;;;5030820;28;20082;-76
2022/07/25 11:16:43;;;;;;;4.90;2.85;;;31.50;41.30;;;;;;5030931;28;20039;-75
2022/07/25 11:19:19;;;;;;;4.68;3.35;;;31.60;40.80;;;;;;5029612;28;20137;-75
2022/07/25 11:21:51;;;;;;;4.93;3.20;;;32.10;42.00;;;;;;5025572;28;20037;-75
2022/07/25 11:24:17;;;;;;;5.32;3.10;;;32.50;40.00;;;;;;5029155;28;20121;-75
2022/07/25 11:26:51;;;;;;;6.65;3.65;;;33.20;39.70;;;;;;5029033;28;20061;-75
2022/07/25 11:29:22;;;;;;;7.65;3.40;;;33.10;38.40;;;;;;5029825;28;20392;-75
2022/07/25 11:31:59;;;;;;;8.80;3.30;;;33.40;39.10;;;;;;5025842;28;20914;-75
2022/07/25 11:34:28;;;;;;;5.05;3.33;;;33.60;37.90;;;;;;5030543;28;20033;-75
2022/07/25 11:36:56;;;;;;;7.55;3.45;;;32.90;37.50;;;;;;5027907;28;20049;-74
2022/07/25 11:39:33;;;;;;;5.25;3.13;;;33.40;38.70;;;;;;5029632;28;20411;-74
2022/07/25 11:42:01;;;;;;;4.70;2.95;;;33.70;39.40;;;;;;5028473;28;20026;-76
2022/07/25 11:44:38;;;;;;;6.60;3.17;;;33.90;38.50;;;;;;5031717;28;20023;-76
2022/07/25 11:47:06;;;;;;;5.10;3.15;;;33.40;37.40;;;;;;5028148;28;20065;-75
2022/07/25 11:49:46;;;;;;;7.07;3.40;;;33.00;36.90;;;;;;5027876;28;20025;-74
2022/07/25 11:52:25;;;;;;;3.65;3.00;;;33.60;36.00;;;;;;5027856;28;20037;-75
2022/07/25 11:55:16;;;;;;;5.65;3.70;;;33.80;35.50;;;;;;5026889;28;20036;-76
2022/07/25 11:57:45;;;;;;;5.63;3.30;;;34.40;35.30;;;;;;5027886;28;20025;-76
2022/07/25 12:00:19;;;;;;;7.43;3.30;;;34.60;35.60;;;;;;5028848;28;20021;-75
2022/07/25 12:02:46;;;;;;;4.15;3.17;;;34.40;34.60;;;;;;5028038;28;20034;-75
2022/07/25 12:05:14;;;;;;;5.47;3.20;;;34.10;35.50;;;;;;5021273;28;20026;-75
2022/07/25 12:07:44;;;;;;;5.90;3.25;;;33.60;36.10;;;;;;5029101;28;20029;-75
2022/07/25 12:10:32;;;;;;;5.45;3.40;;;33.40;36.50;;;;;;5029539;28;20092;-75
2022/07/25 12:13:00;;;;;;;5.15;2.78;;;33.00;36.60;;;;;;5028007;28;20029;-75
2022/07/25 12:15:45;;;;;;;3.78;2.80;;;33.90;36.80;;;;;;5031114;28;20029;-75
2022/07/25 12:18:11;;;;;;;6.15;3.65;;;34.00;36.30;;;;;;5028007;28;20119;-75
2022/07/25 12:20:41;;;;;;;5.05;3.10;;;33.80;36.60;;;;;;5021929;28;20018;-74
2022/07/25 12:23:09;;;;;;;6.28;2.90;;;33.70;36.00;;;;;;5029599;28;20029;-73
2022/07/25 12:25:37;;;;;;;5.18;3.30;;;33.90;37.70;;;;;;5030821;28;20068;-73
2022/07/25 12:28:03;;;;;;;5.57;3.33;;;33.40;36.20;;;;;;5019886;28;20029;-74
2022/07/25 12:30:30;;;;;;;5.28;3.22;;;33.40;36.40;;;;;;5029268;28;20026;-75
2022/07/25 12:32:57;;;;;;;4.82;3.25;;;33.50;37.10;;;;;;5028578;28;20029;-74
2022/07/25 12:35:23;;;;;;;6.25;2.90;;;32.80;37.30;;;;;;5031253;28;20033;-75
2022/07/25 12:37:49;;;;;;;6.43;3.53;;;32.30;38.60;;;;;;5029170;28;20124;-74
2022/07/25 12:40:15;;;;;;;4.32;3.17;;;32.10;38.50;;;;;;5028280;28;20026;-75
2022/07/25 12:42:42;;;;;;;6.00;3.60;;;31.70;39.80;;;;;;5018915;28;20033;-75
2022/07/25 12:45:08;;;;;;;5.82;3.33;;;31.40;40.30;;;;;;5025381;28;20048;-72
2022/07/25 12:47:34;;;;;;;7.88;3.72;;;31.20;40.70;;;;;;5028924;28;20029;-73
2022/07/25 12:49:59;;;;;;;6.03;3.70;;;31.00;41.60;;;;;;5024574;28;20092;-72